sensor_id;sensor_type;location;lat;lon;timestamp;P1;durP1;ratioP1;P2;durP2;ratioP2
17261;SDS011;9873;52.236;21.002;2023-04-03T00:02:43;0.93;;;0.70;;
17261;SDS011;9873;52.236;21.002;2023-04-03T00:12:46;2.53;;;1.10;;
17261;SDS011;9873;52.236;21.002;2023-04-03T00:22:56;3.83;;;1.00;;
17261;SDS011;9873;52.236;21.002;2023-04-03T00:32:59;3.20;;;1.17;;
17261;SDS011;9873;52.236;21.002;2023-04-03T00:43:05;1.37;;;0.90;;
17261;SDS011;9873;52.236;21.002;2023-04-03T00:53:18;1.40;;;1.20;;
17261;SDS011;9873;52.236;21.002;2023-04-03T01:03:25;2.70;;;0.77;;
17261;SDS011;9873;52.236;21.002;2023-04-03T01:13:30;2.17;;;1.00;;
17261;SDS011;9873;52.236;21.002;2023-04-03T01:33:50;2.17;;;1.00;;
17261;SDS011;9873;52.236;21.002;2023-04-03T01:43:58;2.00;;;0.80;;
17261;SDS011;9873;52.236;21.002;2023-04-03T01:54:00;1.47;;;0.73;;
17261;SDS011;9873;52.236;21.002;2023-04-03T02:04:05;3.00;;;1.00;;
17261;SDS011;9873;52.236;21.002;2023-04-03T02:14:10;2.20;;;0.90;;
17261;SDS011;9873;52.236;21.002;2023-04-03T02:24:15;0.77;;;0.77;;
17261;SDS011;9873;52.236;21.002;2023-04-03T02:34:19;1.40;;;0.90;;
17261;SDS011;9873;52.236;21.002;2023-04-03T02:44:24;3.23;;;0.80;;
17261;SDS011;9873;52.236;21.002;2023-04-03T02:54:29;4.30;;;1.70;;
17261;SDS011;9873;52.236;21.002;2023-04-03T03:04:39;1.50;;;0.83;;
17261;SDS011;9873;52.236;21.002;2023-04-03T03:14:49;2.57;;;0.80;;
17261;SDS011;9873;52.236;21.002;2023-04-03T03:24:51;4.30;;;1.10;;
17261;SDS011;9873;52.236;21.002;2023-04-03T03:34:56;3.93;;;1.00;;
17261;SDS011;9873;52.236;21.002;2023-04-03T03:44:59;1.17;;;0.83;;
17261;SDS011;9873;52.236;21.002;2023-04-03T03:55:04;3.30;;;1.07;;
17261;SDS011;9873;52.236;21.002;2023-04-03T04:05:11;2.23;;;0.93;;
17261;SDS011;9873;52.236;21.002;2023-04-03T04:15:21;1.83;;;1.10;;
17261;SDS011;9873;52.236;21.002;2023-04-03T04:25:28;1.37;;;0.83;;
17261;SDS011;9873;52.236;21.002;2023-04-03T04:35:33;1.47;;;1.20;;
17261;SDS011;9873;52.236;21.002;2023-04-03T04:45:40;2.17;;;1.20;;
17261;SDS011;9873;52.236;21.002;2023-04-03T04:55:46;1.93;;;1.50;;
17261;SDS011;9873;52.236;21.002;2023-04-03T05:05:50;3.80;;;1.60;;
17261;SDS011;9873;52.236;21.002;2023-04-03T05:15:53;2.80;;;1.07;;
17261;SDS011;9873;52.236;21.002;2023-04-03T05:25:59;2.40;;;1.10;;
17261;SDS011;9873;52.236;21.002;2023-04-03T05:36:05;2.60;;;1.20;;
17261;SDS011;9873;52.236;21.002;2023-04-03T05:46:15;2.90;;;1.17;;
17261;SDS011;9873;52.236;21.002;2023-04-03T05:56:22;1.50;;;0.80;;
17261;SDS011;9873;52.236;21.002;2023-04-03T06:06:41;1.90;;;0.80;;
17261;SDS011;9873;52.236;21.002;2023-04-03T06:16:48;2.57;;;1.60;;
17261;SDS011;9873;52.236;21.002;2023-04-03T06:26:52;2.50;;;1.40;;
17261;SDS011;9873;52.236;21.002;2023-04-03T06:36:55;1.37;;;0.80;;
17261;SDS011;9873;52.236;21.002;2023-04-03T06:46:57;2.80;;;1.00;;
17261;SDS011;9873;52.236;21.002;2023-04-03T06:56:59;2.97;;;1.00;;
17261;SDS011;9873;52.236;21.002;2023-04-03T07:07:06;6.30;;;1.33;;
17261;SDS011;9873;52.236;21.002;2023-04-03T07:17:09;3.93;;;1.13;;
17261;SDS011;9873;52.236;21.002;2023-04-03T07:27:19;2.70;;;1.17;;
17261;SDS011;9873;52.236;21.002;2023-04-03T07:37:22;3.20;;;1.30;;
17261;SDS011;9873;52.236;21.002;2023-04-03T07:47:25;3.10;;;1.07;;
17261;SDS011;9873;52.236;21.002;2023-04-03T07:57:34;1.97;;;0.87;;
17261;SDS011;9873;52.236;21.002;2023-04-03T08:07:37;3.90;;;1.47;;
17261;SDS011;9873;52.236;21.002;2023-04-03T08:17:50;2.13;;;1.20;;
17261;SDS011;9873;52.236;21.002;2023-04-03T08:27:53;1.83;;;1.00;;
17261;SDS011;9873;52.236;21.002;2023-04-03T08:37:58;2.20;;;1.20;;
17261;SDS011;9873;52.236;21.002;2023-04-03T08:58:15;1.37;;;0.57;;
17261;SDS011;9873;52.236;21.002;2023-04-03T09:18:35;1.90;;;1.47;;
17261;SDS011;9873;52.236;21.002;2023-04-03T09:28:45;1.10;;;0.83;;
17261;SDS011;9873;52.236;21.002;2023-04-03T09:39:05;2.83;;;1.70;;
17261;SDS011;9873;52.236;21.002;2023-04-03T09:49:14;2.43;;;0.90;;
17261;SDS011;9873;52.236;21.002;2023-04-03T09:59:16;4.17;;;2.17;;
17261;SDS011;9873;52.236;21.002;2023-04-03T10:09:30;2.00;;;1.00;;
17261;SDS011;9873;52.236;21.002;2023-04-03T10:30:48;1.40;;;1.03;;
17261;SDS011;9873;52.236;21.002;2023-04-03T10:40:55;2.73;;;1.07;;
17261;SDS011;9873;52.236;21.002;2023-04-03T11:01:33;3.83;;;1.30;;
17261;SDS011;9873;52.236;21.002;2023-04-03T11:11:39;2.13;;;1.03;;
17261;SDS011;9873;52.236;21.002;2023-04-03T11:21:46;0.70;;;0.67;;
17261;SDS011;9873;52.236;21.002;2023-04-03T11:42:14;2.00;;;1.10;;
17261;SDS011;9873;52.236;21.002;2023-04-03T12:02:47;2.17;;;0.90;;
17261;SDS011;9873;52.236;21.002;2023-04-03T12:12:55;4.73;;;1.23;;
17261;SDS011;9873;52.236;21.002;2023-04-03T12:23:21;6.30;;;1.20;;
17261;SDS011;9873;52.236;21.002;2023-04-03T12:34:14;4.07;;;2.37;;
17261;SDS011;9873;52.236;21.002;2023-04-03T12:54:37;1.57;;;1.00;;
17261;SDS011;9873;52.236;21.002;2023-04-03T13:04:46;1.23;;;1.00;;
17261;SDS011;9873;52.236;21.002;2023-04-03T13:14:55;0.63;;;0.63;;
17261;SDS011;9873;52.236;21.002;2023-04-03T13:25:00;2.07;;;0.90;;
17261;SDS011;9873;52.236;21.002;2023-04-03T13:35:24;1.63;;;0.90;;
17261;SDS011;9873;52.236;21.002;2023-04-03T13:45:29;1.73;;;1.23;;
17261;SDS011;9873;52.236;21.002;2023-04-03T13:55:34;2.40;;;1.20;;
17261;SDS011;9873;52.236;21.002;2023-04-03T14:05:38;2.57;;;0.90;;
17261;SDS011;9873;52.236;21.002;2023-04-03T14:15:44;1.30;;;0.70;;
17261;SDS011;9873;52.236;21.002;2023-04-03T14:25:55;2.10;;;0.93;;
17261;SDS011;9873;52.236;21.002;2023-04-03T14:35:57;1.50;;;1.10;;
17261;SDS011;9873;52.236;21.002;2023-04-03T14:56:26;2.57;;;1.13;;
17261;SDS011;9873;52.236;21.002;2023-04-03T15:06:30;2.10;;;1.10;;
17261;SDS011;9873;52.236;21.002;2023-04-03T15:16:34;0.70;;;0.70;;
17261;SDS011;9873;52.236;21.002;2023-04-03T15:26:37;1.00;;;0.80;;
17261;SDS011;9873;52.236;21.002;2023-04-03T15:36:43;3.87;;;1.07;;
17261;SDS011;9873;52.236;21.002;2023-04-03T15:46:46;1.70;;;1.23;;
17261;SDS011;9873;52.236;21.002;2023-04-03T15:56:51;3.13;;;1.10;;
17261;SDS011;9873;52.236;21.002;2023-04-03T16:07:02;2.13;;;1.23;;
17261;SDS011;9873;52.236;21.002;2023-04-03T16:17:04;1.97;;;1.30;;
17261;SDS011;9873;52.236;21.002;2023-04-03T16:27:10;2.27;;;1.50;;
17261;SDS011;9873;52.236;21.002;2023-04-03T16:37:16;2.73;;;1.60;;
17261;SDS011;9873;52.236;21.002;2023-04-03T16:47:20;1.33;;;1.23;;
17261;SDS011;9873;52.236;21.002;2023-04-03T16:57:27;1.50;;;1.00;;
17261;SDS011;9873;52.236;21.002;2023-04-03T17:07:33;2.17;;;1.33;;
17261;SDS011;9873;52.236;21.002;2023-04-03T17:17:39;3.03;;;1.07;;
17261;SDS011;9873;52.236;21.002;2023-04-03T17:27:41;3.20;;;1.50;;
17261;SDS011;9873;52.236;21.002;2023-04-03T17:37:46;1.90;;;1.40;;
17261;SDS011;9873;52.236;21.002;2023-04-03T17:47:50;1.97;;;1.37;;
17261;SDS011;9873;52.236;21.002;2023-04-03T17:57:57;2.13;;;1.40;;
17261;SDS011;9873;52.236;21.002;2023-04-03T18:08:02;3.00;;;1.70;;
17261;SDS011;9873;52.236;21.002;2023-04-03T18:18:07;3.23;;;1.40;;
17261;SDS011;9873;52.236;21.002;2023-04-03T18:28:14;3.00;;;1.97;;
17261;SDS011;9873;52.236;21.002;2023-04-03T18:38:17;3.50;;;2.10;;
17261;SDS011;9873;52.236;21.002;2023-04-03T18:48:22;3.43;;;1.97;;
17261;SDS011;9873;52.236;21.002;2023-04-03T18:58:25;3.13;;;2.00;;
17261;SDS011;9873;52.236;21.002;2023-04-03T19:08:28;5.43;;;2.47;;
17261;SDS011;9873;52.236;21.002;2023-04-03T19:18:32;2.80;;;2.30;;
17261;SDS011;9873;52.236;21.002;2023-04-03T19:28:34;3.33;;;2.70;;
17261;SDS011;9873;52.236;21.002;2023-04-03T19:38:43;3.33;;;2.67;;
17261;SDS011;9873;52.236;21.002;2023-04-03T19:48:51;5.07;;;3.13;;
17261;SDS011;9873;52.236;21.002;2023-04-03T19:58:57;5.97;;;3.20;;
17261;SDS011;9873;52.236;21.002;2023-04-03T20:09:00;6.77;;;3.60;;
17261;SDS011;9873;52.236;21.002;2023-04-03T20:19:06;5.33;;;3.10;;
17261;SDS011;9873;52.236;21.002;2023-04-03T20:29:20;7.77;;;3.83;;
17261;SDS011;9873;52.236;21.002;2023-04-03T20:39:26;5.23;;;3.57;;
17261;SDS011;9873;52.236;21.002;2023-04-03T20:49:31;4.87;;;3.33;;
17261;SDS011;9873;52.236;21.002;2023-04-03T20:59:39;7.03;;;3.70;;
17261;SDS011;9873;52.236;21.002;2023-04-03T21:20:30;6.30;;;3.07;;
17261;SDS011;9873;52.236;21.002;2023-04-03T21:30:32;3.30;;;2.47;;
17261;SDS011;9873;52.236;21.002;2023-04-03T21:40:43;5.33;;;3.13;;
17261;SDS011;9873;52.236;21.002;2023-04-03T21:50:48;5.67;;;3.23;;
17261;SDS011;9873;52.236;21.002;2023-04-03T22:00:53;4.53;;;2.80;;
17261;SDS011;9873;52.236;21.002;2023-04-03T22:11:00;4.47;;;2.93;;
17261;SDS011;9873;52.236;21.002;2023-04-03T22:21:10;5.20;;;3.50;;
17261;SDS011;9873;52.236;21.002;2023-04-03T22:31:13;4.90;;;2.70;;
17261;SDS011;9873;52.236;21.002;2023-04-03T22:41:15;5.30;;;2.47;;
17261;SDS011;9873;52.236;21.002;2023-04-03T22:51:20;6.13;;;2.50;;
17261;SDS011;9873;52.236;21.002;2023-04-03T23:01:29;5.07;;;3.13;;
17261;SDS011;9873;52.236;21.002;2023-04-03T23:11:33;6.43;;;2.13;;
17261;SDS011;9873;52.236;21.002;2023-04-03T23:21:37;3.67;;;2.07;;
17261;SDS011;9873;52.236;21.002;2023-04-03T23:31:49;4.73;;;2.23;;
17261;SDS011;9873;52.236;21.002;2023-04-03T23:41:55;4.27;;;2.47;;
17261;SDS011;9873;52.236;21.002;2023-04-03T23:51:58;3.97;;;2.10;;
